Terminal Aerodrome Forecast
Issued by NWS

Home | Current Version | Previous Version | Text Only | Print | Product List | Glossary On
Versions: 1 2 3 4 5 6 7 8 9 10 11 12 13 14 15 16 17 18 19 20 21 22 23
413
FTUS44 KBMX 231432 AAA
TAFTCL
TAF AMD
KTCL 231432Z 2315/2412 19012G20KT P6SM BKN025
     FM231600 20015G22KT P6SM BKN035
     FM231900 20015G22KT 4SM SHRA VCTS BKN035CB
      TEMPO 2319/2323 2SM SHRA BKN025
     FM232300 21010KT P6SM BKN035
     FM240500 20007KT 6SM SHRA BKN010=

USA.gov is the U.S. government's official web portal to all federal, state and local government web resources and services.